createdAt,value
2022-10-21T00:00:57.687Z,11.10
2022-10-21T00:03:27.524Z,10.00
2022-10-21T00:05:55.201Z,9.47
2022-10-21T00:08:22.911Z,9.47
2022-10-21T00:11:02.420Z,10.97
2022-10-21T00:13:31.297Z,10.57
2022-10-21T00:16:04.072Z,10.33
2022-10-21T00:18:33.220Z,9.87
2022-10-21T00:21:00.672Z,12.10
2022-10-21T00:23:27.676Z,10.63
2022-10-21T00:25:59.116Z,12.40
2022-10-21T00:28:27.084Z,11.90
2022-10-21T00:30:54.873Z,11.00
2022-10-21T00:33:22.529Z,11.80
2022-10-21T00:35:58.103Z,10.70
2022-10-21T00:38:25.599Z,10.70
2022-10-21T00:40:52.665Z,11.17
2022-10-21T00:43:19.611Z,12.07
2022-10-21T00:45:51.170Z,12.40
2022-10-21T00:48:36.592Z,11.67
2022-10-21T00:51:09.969Z,13.20
2022-10-21T00:53:40.982Z,13.77
2022-10-21T00:56:18.124Z,12.83
2022-10-21T00:58:48.313Z,13.97
2022-10-21T01:01:19.148Z,12.90
2022-10-21T01:03:50.555Z,13.00
2022-10-21T01:06:21.243Z,12.33
2022-10-21T01:08:48.482Z,13.00
2022-10-21T01:11:19.119Z,12.77
2022-10-21T01:14:14.543Z,13.60
2022-10-21T01:16:57.082Z,12.20
2022-10-21T01:20:13.993Z,12.97
2022-10-21T01:23:14.839Z,14.50
2022-10-21T01:26:06.157Z,13.50
2022-10-21T01:29:04.072Z,11.93
2022-10-21T01:32:04.618Z,12.57
2022-10-21T01:35:21.559Z,12.13
2022-10-21T01:38:22.316Z,12.80
2022-10-21T01:40:57.250Z,11.23
2022-10-21T01:43:48.497Z,11.57
2022-10-21T01:46:51.892Z,11.20
2022-10-21T01:49:31.782Z,13.30
2022-10-21T01:52:00.958Z,14.60
2022-10-21T01:54:40.732Z,10.60
2022-10-21T01:57:10.144Z,12.63
2022-10-21T01:59:40.038Z,9.13
2022-10-21T02:02:09.279Z,9.77
2022-10-21T02:04:39.016Z,12.77
2022-10-21T02:07:06.048Z,8.73
2022-10-21T02:09:32.974Z,11.17
2022-10-21T02:12:03.457Z,14.23
2022-10-21T02:14:47.842Z,14.03
2022-10-21T02:17:18.867Z,15.53
2022-10-21T02:19:46.605Z,12.97
2022-10-21T02:22:19.038Z,11.27
2022-10-21T02:25:17.939Z,10.53
2022-10-21T02:27:45.434Z,11.37
2022-10-21T02:30:12.950Z,10.00
2022-10-21T02:32:58.190Z,10.10
2022-10-21T02:35:39.874Z,11.00
2022-10-21T02:38:18.788Z,10.90
2022-10-21T02:40:51.745Z,10.10
2022-10-21T02:43:27.783Z,9.07
2022-10-21T02:46:06.781Z,10.87
2022-10-21T02:48:35.238Z,9.93
2022-10-21T02:51:07.875Z,8.40
2022-10-21T02:53:36.079Z,9.10
2022-10-21T02:56:03.584Z,9.43
2022-10-21T02:58:31.314Z,10.07
2022-10-21T03:00:58.635Z,8.70
2022-10-21T03:03:25.743Z,8.93
2022-10-21T03:05:52.706Z,8.73
2022-10-21T03:08:19.574Z,8.20
2022-10-21T03:10:53.010Z,8.90
2022-10-21T03:13:21.622Z,9.80
2022-10-21T03:15:50.193Z,8.43
2022-10-21T03:18:17.367Z,8.77
2022-10-21T03:20:44.819Z,8.50
2022-10-21T03:23:11.712Z,9.03
2022-10-21T03:25:38.575Z,9.40
2022-10-21T03:28:05.472Z,9.37
2022-10-21T03:30:32.511Z,9.77
2022-10-21T03:32:59.409Z,9.83
2022-10-21T03:35:27.062Z,9.60
2022-10-21T03:37:54.176Z,11.63
2022-10-21T03:40:23.713Z,11.37
2022-10-21T03:42:50.898Z,10.50
2022-10-21T03:45:17.907Z,9.20
2022-10-21T03:47:44.799Z,9.80
2022-10-21T03:50:14.007Z,9.03
2022-10-21T03:52:43.455Z,9.20
2022-10-21T03:55:10.475Z,9.47
2022-10-21T03:57:37.522Z,10.50
2022-10-21T04:00:05.831Z,8.73
2022-10-21T04:02:32.837Z,9.27
2022-10-21T04:04:59.790Z,9.77
2022-10-21T04:07:26.695Z,8.97
2022-10-21T04:09:53.574Z,9.27
2022-10-21T04:12:20.445Z,9.47
2022-10-21T04:14:47.381Z,9.10
2022-10-21T04:17:14.283Z,7.43
2022-10-21T04:19:41.147Z,8.97
2022-10-21T04:22:08.098Z,9.10
2022-10-21T04:24:35.014Z,11.70
2022-10-21T04:27:01.931Z,8.87
2022-10-21T04:29:28.810Z,10.40
2022-10-21T04:31:57.041Z,10.10
2022-10-21T04:34:23.921Z,9.00
2022-10-21T04:36:50.782Z,9.83
2022-10-21T04:39:17.829Z,8.30
2022-10-21T04:41:45.741Z,10.40
2022-10-21T04:44:12.675Z,8.03
2022-10-21T04:46:39.590Z,9.53
2022-10-21T04:49:06.495Z,9.63
2022-10-21T04:51:33.386Z,10.27
2022-10-21T04:54:00.326Z,11.77
2022-10-21T04:56:27.232Z,10.50
2022-10-21T04:58:54.247Z,12.00
2022-10-21T05:01:21.282Z,10.00
2022-10-21T05:03:48.217Z,9.90
2022-10-21T05:06:15.166Z,10.10
2022-10-21T05:08:42.062Z,9.63
2022-10-21T05:11:09.087Z,9.73
2022-10-21T05:13:35.947Z,10.83
2022-10-21T05:16:04.485Z,10.03
2022-10-21T05:18:31.754Z,8.83
2022-10-21T05:20:58.949Z,9.40
2022-10-21T05:23:26.887Z,8.80
2022-10-21T05:25:54.038Z,8.33
2022-10-21T05:28:21.964Z,9.47
2022-10-21T05:30:49.428Z,11.83
2022-10-21T05:33:16.758Z,12.60
2022-10-21T05:35:44.136Z,12.87
2022-10-21T05:38:11.193Z,11.87
2022-10-21T05:40:38.158Z,10.33
2022-10-21T05:43:05.059Z,10.10
2022-10-21T05:45:31.972Z,11.17
2022-10-21T05:47:58.889Z,11.93
2022-10-21T05:50:25.842Z,9.97
2022-10-21T05:52:53.889Z,10.40
2022-10-21T05:55:21.687Z,10.90
2022-10-21T05:57:48.630Z,10.10
2022-10-21T06:00:15.810Z,10.80
2022-10-21T06:02:42.817Z,10.50
2022-10-21T06:05:09.765Z,12.13
2022-10-21T06:07:36.947Z,11.70
2022-10-21T06:10:05.111Z,10.30
2022-10-21T06:12:31.954Z,10.23
2022-10-21T06:14:58.845Z,10.67
2022-10-21T06:17:25.723Z,12.53
2022-10-21T06:19:52.587Z,11.17
2022-10-21T06:22:19.772Z,10.23
2022-10-21T06:24:47.316Z,10.87
2022-10-21T06:27:14.241Z,11.10
2022-10-21T06:29:41.114Z,9.80
2022-10-21T06:32:08.055Z,10.70
2022-10-21T06:34:35.160Z,11.50
2022-10-21T06:37:02.008Z,10.77
2022-10-21T06:39:28.945Z,10.77
2022-10-21T06:41:55.867Z,11.60
2022-10-21T06:44:22.804Z,11.20
2022-10-21T06:46:49.779Z,11.43
2022-10-21T06:49:16.743Z,11.70
2022-10-21T06:51:43.658Z,11.70
2022-10-21T06:54:10.538Z,11.40
2022-10-21T06:56:39.335Z,11.10
2022-10-21T06:59:06.346Z,11.77
2022-10-21T07:01:55.180Z,11.80
2022-10-21T07:04:20.628Z,12.10
2022-10-21T07:06:49.012Z,11.73
2022-10-21T07:09:16.542Z,10.67
2022-10-21T07:11:44.539Z,11.30
2022-10-21T07:14:14.469Z,11.90
2022-10-21T07:16:42.413Z,11.27
2022-10-21T07:19:11.258Z,11.10
2022-10-21T07:21:38.490Z,11.20
2022-10-21T07:24:05.778Z,11.53
2022-10-21T07:26:34.818Z,12.77
2022-10-21T07:29:02.186Z,11.40
2022-10-21T07:31:35.499Z,10.60
2022-10-21T07:36:40.550Z,11.13
2022-10-21T07:39:14.615Z,10.33
2022-10-21T07:41:54.408Z,11.33
2022-10-21T07:44:23.640Z,10.20
2022-10-21T07:46:52.146Z,10.30
2022-10-21T07:49:20.753Z,11.10
2022-10-21T07:51:50.155Z,10.00
2022-10-21T07:54:18.598Z,11.50
2022-10-21T07:56:49.392Z,10.97
2022-10-21T07:59:19.759Z,11.27
2022-10-21T08:04:24.939Z,10.10
2022-10-21T08:06:51.891Z,10.77
2022-10-21T08:09:18.831Z,11.07
2022-10-21T08:11:45.998Z,11.40
2022-10-21T08:14:13.610Z,10.20
2022-10-21T08:16:41.720Z,10.70
2022-10-21T08:19:10.160Z,10.90
2022-10-21T08:21:37.819Z,10.63
2022-10-21T08:24:05.748Z,10.00
2022-10-21T08:26:32.794Z,10.90
2022-10-21T08:28:59.734Z,9.33
2022-10-21T08:31:27.056Z,10.53
2022-10-21T08:33:55.120Z,11.07
2022-10-21T08:36:25.073Z,10.50
2022-10-21T08:38:53.042Z,11.60
2022-10-21T08:41:28.953Z,12.67
2022-10-21T08:44:33.629Z,11.80
2022-10-21T08:47:30.996Z,11.60
2022-10-21T08:50:05.514Z,12.10
2022-10-21T08:53:06.474Z,11.50
2022-10-21T08:55:42.817Z,11.30
2022-10-21T08:58:21.914Z,11.17
2022-10-21T09:00:58.995Z,10.73
2022-10-21T09:03:34.997Z,10.00
2022-10-21T09:06:29.484Z,6.90
2022-10-21T09:09:25.504Z,7.43
2022-10-21T09:12:46.100Z,6.10
2022-10-21T09:15:21.960Z,5.10
2022-10-21T09:18:14.312Z,4.90
2022-10-21T09:21:23.868Z,4.10
2022-10-21T09:24:15.986Z,4.13
2022-10-21T09:26:45.799Z,4.17
2022-10-21T09:29:25.048Z,3.20
2022-10-21T09:31:58.548Z,3.13
2022-10-21T09:34:50.984Z,2.80
2022-10-21T09:37:42.782Z,3.10
2022-10-21T09:40:17.619Z,2.10
2022-10-21T09:42:47.901Z,2.50
2022-10-21T09:45:44.461Z,2.00
2022-10-21T09:48:17.322Z,2.03
2022-10-21T09:50:51.509Z,2.10
2022-10-21T09:53:27.912Z,2.67
2022-10-21T09:56:05.151Z,1.87
2022-10-21T09:58:38.159Z,1.90
2022-10-21T10:01:06.550Z,2.30
2022-10-21T10:03:53.992Z,2.03
2022-10-21T10:06:47.924Z,1.83
2022-10-21T10:09:29.458Z,1.63
2022-10-21T10:12:09.928Z,2.23
2022-10-21T10:14:43.728Z,2.20
2022-10-21T10:17:37.161Z,2.00
2022-10-21T10:20:04.126Z,2.00
2022-10-21T10:22:45.769Z,1.90
2022-10-21T10:25:16.883Z,2.20
2022-10-21T10:27:52.923Z,1.90
2022-10-21T10:30:22.659Z,2.07
2022-10-21T10:32:55.066Z,2.30
2022-10-21T10:35:34.378Z,3.00
2022-10-21T10:38:02.668Z,3.47
2022-10-21T10:40:41.887Z,4.30
2022-10-21T10:43:29.489Z,4.50
2022-10-21T10:46:10.283Z,3.37
2022-10-21T10:48:48.705Z,3.27
2022-10-21T10:51:33.554Z,3.10
2022-10-21T10:54:27.478Z,4.50
2022-10-21T10:57:06.622Z,3.70
2022-10-21T11:00:07.458Z,3.57
2022-10-21T11:02:44.119Z,4.03
2022-10-21T11:05:36.575Z,3.70
2022-10-21T11:08:24.370Z,3.17
2022-10-21T11:11:01.106Z,2.57
2022-10-21T11:13:30.733Z,2.90
2022-10-21T11:16:24.783Z,2.30
2022-10-21T11:19:25.543Z,2.53
2022-10-21T11:22:05.896Z,2.27
2022-10-21T11:24:52.297Z,2.80
2022-10-21T11:27:45.882Z,1.93
2022-10-21T11:30:27.615Z,2.47
2022-10-21T11:33:18.571Z,2.60
2022-10-21T11:36:15.191Z,2.70
2022-10-21T11:39:32.954Z,2.77
2022-10-21T11:42:41.078Z,2.17
2022-10-21T11:45:35.420Z,2.83
2022-10-21T11:48:30.685Z,2.90
2022-10-21T11:52:03.955Z,2.70
2022-10-21T11:55:10.516Z,2.50
2022-10-21T11:58:28.654Z,2.73
2022-10-21T12:01:17.071Z,3.03
2022-10-21T12:04:21.532Z,2.47
2022-10-21T12:07:27.486Z,3.07
2022-10-21T12:10:04.643Z,2.33
2022-10-21T12:12:46.464Z,2.83
2022-10-21T12:15:27.508Z,3.40
2022-10-21T12:17:55.660Z,3.13
2022-10-21T12:20:27.066Z,3.00
2022-10-21T12:23:05.388Z,2.83
2022-10-21T12:25:46.305Z,2.87
2022-10-21T12:28:41.283Z,2.83
2022-10-21T12:31:48.963Z,2.80
2022-10-21T12:34:16.213Z,2.60
2022-10-21T12:36:51.626Z,2.70
2022-10-21T12:39:49.393Z,2.40
2022-10-21T12:42:22.308Z,2.70
2022-10-21T12:44:51.258Z,2.50
2022-10-21T12:47:31.192Z,1.83
2022-10-21T12:50:19.280Z,2.40
2022-10-21T12:53:05.075Z,2.57
2022-10-21T12:55:39.987Z,2.23
2022-10-21T12:58:44.913Z,2.00
2022-10-21T13:01:45.164Z,2.17
2022-10-21T13:04:34.109Z,2.10
2022-10-21T13:07:19.212Z,1.80
2022-10-21T13:09:52.147Z,1.90
2022-10-21T13:12:24.827Z,2.03
2022-10-21T13:15:00.215Z,2.33
2022-10-21T13:17:48.350Z,2.63
2022-10-21T13:20:15.140Z,2.07
2022-10-21T13:22:50.921Z,2.10
2022-10-21T13:25:26.499Z,1.90
2022-10-21T13:27:54.372Z,1.80
2022-10-21T13:30:37.301Z,1.90
2022-10-21T13:33:06.651Z,1.50
2022-10-21T13:35:44.861Z,1.60
2022-10-21T13:38:26.277Z,1.40
2022-10-21T13:41:04.412Z,1.50
2022-10-21T13:43:45.426Z,1.40
2022-10-21T13:46:42.442Z,1.57
2022-10-21T13:49:33.467Z,1.60
2022-10-21T13:52:00.380Z,1.30
2022-10-21T13:54:34.648Z,1.70
2022-10-21T13:57:07.439Z,1.33
2022-10-21T13:59:34.940Z,1.23
2022-10-21T14:02:02.151Z,1.30
2022-10-21T14:04:32.353Z,1.67
2022-10-21T14:07:06.271Z,1.77
2022-10-21T14:09:50.115Z,1.50
2022-10-21T14:12:35.222Z,1.30
2022-10-21T14:15:14.451Z,1.73
2022-10-21T14:17:44.527Z,1.43
2022-10-21T14:20:24.147Z,1.60
2022-10-21T14:22:51.742Z,1.20
2022-10-21T14:25:19.296Z,1.20
2022-10-21T14:27:48.802Z,1.50
2022-10-21T14:30:26.320Z,1.33
2022-10-21T14:32:57.130Z,1.20
2022-10-21T14:35:28.162Z,1.30
2022-10-21T14:37:58.477Z,2.43
2022-10-21T14:40:42.304Z,1.60
2022-10-21T14:43:12.214Z,1.50
2022-10-21T14:45:47.620Z,1.70
2022-10-21T14:48:14.520Z,1.70
2022-10-21T14:50:42.874Z,1.60
2022-10-21T14:53:18.956Z,1.20
2022-10-21T14:55:47.605Z,1.20
2022-10-21T14:58:23.095Z,1.27
2022-10-21T15:01:00.678Z,1.60
2022-10-21T15:03:54.206Z,1.40
2022-10-21T15:06:24.844Z,1.40
2022-10-21T15:08:57.928Z,1.47
2022-10-21T15:11:29.004Z,1.67
2022-10-21T15:14:12.414Z,1.30
2022-10-21T15:16:48.137Z,1.20
2022-10-21T15:19:37.910Z,1.13
2022-10-21T15:22:06.134Z,1.37
2022-10-21T15:24:43.470Z,1.03
2022-10-21T15:27:37.102Z,3.13
2022-10-21T15:30:19.025Z,1.10
2022-10-21T15:32:47.447Z,1.00
2022-10-21T15:35:23.135Z,1.50
2022-10-21T15:37:51.962Z,1.30
2022-10-21T15:40:20.182Z,1.63
2022-10-21T15:42:47.558Z,1.30
2022-10-21T15:45:23.918Z,1.37
2022-10-21T15:47:53.099Z,1.50
2022-10-21T15:50:23.748Z,1.20
2022-10-21T15:52:51.184Z,1.10
2022-10-21T15:55:18.612Z,2.40
2022-10-21T15:57:45.588Z,3.30
2022-10-21T16:00:22.466Z,3.67
2022-10-21T16:02:53.899Z,2.20
2022-10-21T16:05:24.058Z,2.47
2022-10-21T16:07:51.396Z,2.70
2022-10-21T16:10:32.339Z,1.50
2022-10-21T16:12:59.356Z,1.60
2022-10-21T16:15:26.890Z,1.50
2022-10-21T16:17:57.078Z,1.77
2022-10-21T16:20:31.629Z,1.60
2022-10-21T16:23:02.262Z,1.60
2022-10-21T16:25:32.094Z,1.10
2022-10-21T16:27:59.897Z,2.17
2022-10-21T16:30:33.116Z,3.50
2022-10-21T16:33:00.108Z,3.00
2022-10-21T16:35:27.547Z,2.03
2022-10-21T16:37:56.143Z,1.50
2022-10-21T16:40:27.851Z,3.10
2022-10-21T16:42:55.144Z,2.03
2022-10-21T16:45:30.042Z,1.70
2022-10-21T16:48:00.207Z,1.70
2022-10-21T16:50:39.659Z,1.50
2022-10-21T16:53:17.216Z,2.37
2022-10-21T16:55:44.487Z,1.27
2022-10-21T16:58:11.452Z,1.30
2022-10-21T17:00:38.572Z,1.60
2022-10-21T17:03:06.046Z,1.47
2022-10-21T17:08:04.968Z,1.63
2022-10-21T17:10:31.989Z,1.83
2022-10-21T17:13:01.463Z,1.87
2022-10-21T17:15:30.929Z,1.77
2022-10-21T17:17:59.166Z,2.73
2022-10-21T17:20:30.411Z,2.93
2022-10-21T17:22:59.728Z,2.10
2022-10-21T17:25:28.954Z,1.97
2022-10-21T17:27:57.011Z,2.13
2022-10-21T17:30:24.460Z,1.83
2022-10-21T17:32:51.436Z,1.97
2022-10-21T17:35:18.745Z,1.70
2022-10-21T17:37:50.434Z,1.73
2022-10-21T17:40:25.946Z,1.63
2022-10-21T17:42:58.713Z,2.10
2022-10-21T17:45:26.240Z,1.50
2022-10-21T17:47:53.899Z,1.50
2022-10-21T17:50:24.400Z,1.70
2022-10-21T17:52:52.183Z,1.40
2022-10-21T17:55:19.723Z,2.03
2022-10-21T17:57:46.999Z,2.00
2022-10-21T18:00:14.817Z,2.20
2022-10-21T18:02:42.022Z,1.60
2022-10-21T18:05:10.707Z,1.90
2022-10-21T18:07:38.449Z,1.63
2022-10-21T18:10:07.615Z,2.97
2022-10-21T18:12:35.552Z,2.43
2022-10-21T18:15:03.308Z,1.50
2022-10-21T18:17:30.207Z,1.40
2022-10-21T18:19:57.143Z,1.60
2022-10-21T18:22:24.658Z,1.30
2022-10-21T18:24:52.674Z,1.63
2022-10-21T18:27:19.714Z,1.47
2022-10-21T18:29:46.855Z,1.80
2022-10-21T18:32:14.763Z,1.33
2022-10-21T18:34:42.475Z,1.30
2022-10-21T18:37:09.593Z,1.70
2022-10-21T18:39:36.498Z,1.70
2022-10-21T18:42:03.371Z,2.00
2022-10-21T18:44:30.437Z,2.00
2022-10-21T18:46:57.418Z,1.77
2022-10-21T18:49:24.515Z,1.80
2022-10-21T18:51:52.467Z,1.63
2022-10-21T18:54:19.437Z,2.13
2022-10-21T18:56:46.474Z,1.80
2022-10-21T18:59:13.920Z,2.33
2022-10-21T19:01:40.924Z,2.97
2022-10-21T19:04:08.271Z,2.17
2022-10-21T19:06:46.727Z,2.10
2022-10-21T19:09:22.700Z,3.23
2022-10-21T19:11:50.090Z,1.80
2022-10-21T19:14:17.485Z,1.97
2022-10-21T19:16:46.380Z,1.70
2022-10-21T19:19:15.182Z,2.10
2022-10-21T19:21:42.547Z,2.10
2022-10-21T19:24:10.369Z,1.90
2022-10-21T19:26:40.766Z,2.27
2022-10-21T19:29:17.127Z,2.20
2022-10-21T19:34:22.944Z,2.33
2022-10-21T19:37:02.048Z,2.40
2022-10-21T19:39:36.855Z,1.93
2022-10-21T19:42:03.897Z,1.87
2022-10-21T19:44:31.073Z,1.97
2022-10-21T19:46:57.968Z,2.40
2022-10-21T19:49:25.865Z,1.80
2022-10-21T19:51:58.916Z,2.37
2022-10-21T19:54:29.836Z,2.47
2022-10-21T19:56:57.017Z,2.60
2022-10-21T19:59:25.958Z,2.90
2022-10-21T20:01:52.891Z,2.70
2022-10-21T20:04:19.794Z,3.20
2022-10-21T20:06:50.739Z,3.30
2022-10-21T20:09:17.692Z,3.30
2022-10-21T20:11:49.647Z,2.90
2022-10-21T20:14:20.994Z,2.70
2022-10-21T20:16:49.126Z,3.03
2022-10-21T20:19:16.095Z,2.90
2022-10-21T20:21:55.287Z,2.60
2022-10-21T20:24:22.146Z,2.70
2022-10-21T20:26:51.288Z,2.33
2022-10-21T20:29:18.990Z,2.27
2022-10-21T20:31:57.084Z,2.00
2022-10-21T20:34:25.771Z,2.23
2022-10-21T20:36:52.727Z,2.33
2022-10-21T20:39:20.719Z,2.23
2022-10-21T20:41:51.629Z,1.90
2022-10-21T20:44:21.518Z,2.03
2022-10-21T20:46:49.422Z,2.17
2022-10-21T20:49:24.455Z,1.53
2022-10-21T20:51:58.427Z,1.93
2022-10-21T20:54:28.024Z,1.60
2022-10-21T20:56:54.984Z,1.57
2022-10-21T20:59:22.913Z,1.57
2022-10-21T21:01:53.230Z,1.70
2022-10-21T21:04:31.337Z,1.67
2022-10-21T21:06:58.217Z,1.50
2022-10-21T21:12:12.853Z,1.70
2022-10-21T21:14:39.876Z,1.93
2022-10-21T21:17:07.112Z,1.70
2022-10-21T21:19:42.274Z,1.60
2022-10-21T21:22:09.187Z,1.67
2022-10-21T21:24:36.111Z,1.70
2022-10-21T21:27:02.994Z,2.13
2022-10-21T21:29:35.719Z,2.13
2022-10-21T21:32:12.092Z,1.43
2022-10-21T21:34:44.101Z,2.40
2022-10-21T21:37:11.027Z,1.60
2022-10-21T21:39:42.851Z,2.10
2022-10-21T21:42:23.095Z,1.60
2022-10-21T21:44:49.950Z,2.03
2022-10-21T21:47:16.856Z,2.80
2022-10-21T21:49:43.825Z,2.20
2022-10-21T21:52:10.753Z,2.80
2022-10-21T21:54:37.722Z,2.30
2022-10-21T21:59:51.639Z,1.63
2022-10-21T22:02:18.605Z,2.77
2022-10-21T22:04:46.377Z,1.80
2022-10-21T22:07:13.913Z,2.20
2022-10-21T22:09:40.784Z,2.13
2022-10-21T22:12:07.729Z,2.40
2022-10-21T22:14:34.699Z,2.20
2022-10-21T22:17:01.558Z,1.90
2022-10-21T22:19:28.462Z,2.30
2022-10-21T22:21:55.416Z,2.00
2022-10-21T22:24:22.415Z,1.93
2022-10-21T22:26:49.297Z,2.20
2022-10-21T22:29:16.177Z,2.03
2022-10-21T22:31:43.110Z,2.00
2022-10-21T22:34:11.892Z,2.07
2022-10-21T22:36:39.082Z,2.40
2022-10-21T22:39:06.587Z,1.90
2022-10-21T22:41:33.487Z,1.50
2022-10-21T22:44:00.659Z,1.83
2022-10-21T22:46:35.137Z,1.83
2022-10-21T22:49:06.572Z,1.53
2022-10-21T22:51:33.950Z,1.53
2022-10-21T22:54:01.177Z,1.60
2022-10-21T22:56:28.434Z,1.70
2022-10-21T22:58:57.175Z,1.60
2022-10-21T23:01:28.665Z,1.50
2022-10-21T23:04:04.831Z,1.80
2022-10-21T23:06:34.225Z,1.30
2022-10-21T23:09:03.872Z,1.50
2022-10-21T23:11:31.823Z,1.60
2022-10-21T23:14:03.308Z,1.10
2022-10-21T23:16:36.231Z,1.80
2022-10-21T23:19:04.313Z,1.40
2022-10-21T23:21:31.463Z,1.63
2022-10-21T23:23:58.430Z,1.40
2022-10-21T23:26:25.901Z,1.20
2022-10-21T23:28:52.831Z,1.43
2022-10-21T23:31:20.053Z,1.13
2022-10-21T23:33:46.923Z,1.10
2022-10-21T23:36:14.066Z,1.30
2022-10-21T23:38:40.948Z,1.20
2022-10-21T23:41:07.829Z,1.13
2022-10-21T23:43:34.774Z,1.10
2022-10-21T23:46:01.964Z,1.00
2022-10-21T23:48:28.948Z,1.30
2022-10-21T23:50:55.979Z,1.43
2022-10-21T23:53:22.881Z,1.03
2022-10-21T23:55:49.835Z,1.10
2022-10-21T23:58:16.676Z,0.80
